Time;durP1;ratioP1;P1;durP2;ratioP2;P2;SDS_P1;SDS_P2;PMS_P1;PMS_P2;Temp;Humidity;BMP_temperature;BMP_pressure;BME280_temperature;BME280_humidity;BME280_pressure;Samples;Min_cycle;Max_cycle;Signal;HPM_P1;HPM_P2
2023/10/26 00:01:22;;;;;;;2.45;2.20;;;;;;;;;;6151852;23;20053;-67
2023/10/26 00:03:48;;;;;;;2.13;2.03;;;;;;;;;;6153502;23;20033;-67
2023/10/26 00:06:15;;;;;;;1.80;1.70;;;;;;;;;;6151888;23;20021;-67
2023/10/26 00:08:41;;;;;;;2.03;1.92;;;;;;;;;;6153039;23;20041;-66
2023/10/26 00:11:07;;;;;;;1.60;1.60;;;;;;;;;;6153875;23;20009;-67
2023/10/26 00:13:33;;;;;;;5.55;2.33;;;;;;;;;;6153064;23;20116;-67
2023/10/26 00:15:59;;;;;;;1.90;1.80;;;;;;;;;;6153495;23;20100;-67
2023/10/26 00:18:25;;;;;;;2.88;2.00;;;;;;;;;;6153277;23;20015;-67
2023/10/26 00:20:58;;;;;;;3.67;2.65;;;;;;;;;;6152788;23;20108;-67
2023/10/26 00:23:24;;;;;;;1.95;1.88;;;;;;;;;;6153392;23;20037;-68
2023/10/26 00:25:50;;;;;;;2.63;2.28;;;;;;;;;;6126778;23;20013;-68
2023/10/26 00:28:16;;;;;;;2.10;2.00;;;;;;;;;;6153121;23;20021;-69
2023/10/26 00:30:42;;;;;;;2.03;1.83;;;;;;;;;;6151420;23;20017;-68
2023/10/26 00:33:09;;;;;;;2.33;2.20;;;;;;;;;;6153110;23;20017;-67
2023/10/26 00:35:35;;;;;;;2.40;2.28;;;;;;;;;;6152757;23;20020;-68
2023/10/26 00:38:01;;;;;;;1.92;1.83;;;;;;;;;;6152908;23;20021;-67
2023/10/26 00:40:27;;;;;;;1.67;1.58;;;;;;;;;;6151323;23;20137;-67
2023/10/26 00:43:04;;;;;;;2.80;2.60;;;;;;;;;;6152627;23;20446;-68
2023/10/26 00:45:31;;;;;;;2.47;2.28;;;;;;;;;;6153161;23;20021;-67
2023/10/26 00:47:57;;;;;;;1.48;1.48;;;;;;;;;;6152755;23;20021;-67
2023/10/26 00:50:24;;;;;;;6.85;2.95;;;;;;;;;;6153136;23;20021;-67
2023/10/26 00:52:51;;;;;;;2.80;2.60;;;;;;;;;;6152570;23;20017;-67
2023/10/26 00:55:17;;;;;;;2.80;1.92;;;;;;;;;;6152989;23;20044;-66
2023/10/26 00:57:44;;;;;;;1.92;1.83;;;;;;;;;;6152873;23;20606;-66
2023/10/26 01:00:10;;;;;;;2.42;2.33;;;;;;;;;;6151211;23;20083;-67
2023/10/26 01:02:37;;;;;;;2.22;2.10;;;;;;;;;;6152501;23;20037;-67
2023/10/26 01:05:03;;;;;;;2.08;1.98;;;;;;;;;;6151373;23;20017;-67
2023/10/26 01:07:31;;;;;;;2.92;2.20;;;;;;;;;;6151765;23;20013;-67
2023/10/26 01:09:57;;;;;;;2.47;2.38;;;;;;;;;;6152469;23;20033;-67
2023/10/26 01:12:23;;;;;;;2.55;2.10;;;;;;;;;;6151285;23;20481;-67
2023/10/26 01:14:49;;;;;;;1.95;1.85;;;;;;;;;;6152501;23;20014;-67
2023/10/26 01:17:15;;;;;;;2.33;2.22;;;;;;;;;;6152569;23;20020;-67
2023/10/26 01:19:41;;;;;;;2.55;2.05;;;;;;;;;;6150950;23;20014;-66
2023/10/26 01:22:07;;;;;;;1.80;1.67;;;;;;;;;;6151167;23;20028;-67
2023/10/26 01:24:34;;;;;;;2.75;2.50;;;;;;;;;;6152824;23;20353;-67
2023/10/26 01:27:00;;;;;;;2.30;2.20;;;;;;;;;;6152618;23;20577;-67
2023/10/26 01:29:26;;;;;;;3.45;2.38;;;;;;;;;;6152676;23;20013;-67
2023/10/26 01:31:52;;;;;;;2.13;2.00;;;;;;;;;;6150688;23;20018;-66
2023/10/26 01:34:18;;;;;;;2.22;2.10;;;;;;;;;;6152522;23;20017;-67
2023/10/26 01:36:44;;;;;;;3.15;1.92;;;;;;;;;;6151996;23;20009;-66
2023/10/26 01:39:11;;;;;;;1.50;1.33;;;;;;;;;;6152572;23;20018;-67
2023/10/26 01:41:37;;;;;;;2.28;2.17;;;;;;;;;;6151978;23;20026;-68
2023/10/26 01:44:04;;;;;;;1.40;1.40;;;;;;;;;;6152863;23;20040;-66
2023/10/26 01:46:30;;;;;;;2.33;1.90;;;;;;;;;;6152627;23;20462;-66
2023/10/26 01:48:56;;;;;;;1.95;1.85;;;;;;;;;;6152036;23;20020;-66
2023/10/26 01:51:22;;;;;;;2.03;1.92;;;;;;;;;;6152339;23;20017;-66
2023/10/26 01:53:48;;;;;;;2.20;2.10;;;;;;;;;;6152050;23;20037;-67
2023/10/26 01:56:14;;;;;;;1.90;1.80;;;;;;;;;;6175567;23;20010;-67
2023/10/26 01:58:40;;;;;;;2.20;2.10;;;;;;;;;;6150646;23;20013;-66
2023/10/26 02:01:06;;;;;;;1.90;1.80;;;;;;;;;;6151502;23;20057;-67
2023/10/26 02:03:32;;;;;;;1.55;1.45;;;;;;;;;;6152174;23;20014;-66
2023/10/26 02:05:59;;;;;;;1.27;1.27;;;;;;;;;;6150458;23;20009;-67
2023/10/26 02:08:25;;;;;;;1.52;1.42;;;;;;;;;;6152053;23;20468;-66
2023/10/26 02:10:50;;;;;;;3.25;1.90;;;;;;;;;;6151657;23;20100;-66
2023/10/26 02:13:18;;;;;;;1.83;1.73;;;;;;;;;;6152758;23;20009;-69
2023/10/26 02:15:44;;;;;;;2.08;1.98;;;;;;;;;;6150690;23;20366;-68
2023/10/26 02:18:10;;;;;;;1.80;1.70;;;;;;;;;;6152331;23;20005;-68
2023/10/26 02:20:57;;;;;;;2.38;1.90;;;;;;;;;;6150636;23;20032;-68
2023/10/26 02:23:22;;;;;;;2.30;2.10;;;;;;;;;;6152192;23;20035;-67
2023/10/26 02:25:48;;;;;;;2.50;1.95;;;;;;;;;;6151926;23;20017;-68
2023/10/26 02:28:19;;;;;;;5.60;2.22;;;;;;;;;;6150557;23;20009;-67
2023/10/26 02:30:45;;;;;;;2.15;1.80;;;;;;;;;;6151944;23;20020;-66
2023/10/26 02:33:11;;;;;;;1.95;1.85;;;;;;;;;;6152101;23;20568;-67
2023/10/26 02:35:39;;;;;;;2.58;2.35;;;;;;;;;;6150544;23;20017;-67
2023/10/26 02:38:05;;;;;;;3.20;2.83;;;;;;;;;;6150495;23;20020;-66
2023/10/26 02:40:32;;;;;;;2.25;2.15;;;;;;;;;;6151652;23;20021;-67
2023/10/26 02:42:59;;;;;;;1.80;1.70;;;;;;;;;;6151622;23;20020;-66
2023/10/26 02:45:25;;;;;;;4.40;2.40;;;;;;;;;;6151600;23;20009;-67
2023/10/26 02:47:51;;;;;;;3.22;2.95;;;;;;;;;;6151525;23;20041;-67
2023/10/26 02:50:17;;;;;;;2.95;2.75;;;;;;;;;;6151980;23;20017;-67
2023/10/26 02:52:43;;;;;;;2.03;1.92;;;;;;;;;;6149952;23;20060;-67
2023/10/26 02:55:09;;;;;;;2.17;2.08;;;;;;;;;;6151897;23;20040;-67
2023/10/26 02:57:36;;;;;;;2.67;2.47;;;;;;;;;;6151917;23;20009;-67
2023/10/26 03:00:02;;;;;;;3.10;2.65;;;;;;;;;;6149925;23;20022;-66
2023/10/26 03:02:32;;;;;;;2.67;2.55;;;;;;;;;;6150346;23;20370;-66
2023/10/26 03:04:58;;;;;;;6.15;3.22;;;;;;;;;;6151821;23;20020;-67
2023/10/26 03:07:24;;;;;;;2.75;2.50;;;;;;;;;;6151932;23;20017;-67
2023/10/26 03:09:50;;;;;;;3.00;2.80;;;;;;;;;;6151638;23;20045;-66
2023/10/26 03:12:18;;;;;;;6.60;3.70;;;;;;;;;;6149700;23;20009;-67
2023/10/26 03:14:44;;;;;;;4.65;4.25;;;;;;;;;;6125310;23;20402;-67
2023/10/26 03:17:14;;;;;;;4.18;3.70;;;;;;;;;;6125850;23;20010;-67
2023/10/26 03:19:43;;;;;;;3.20;3.10;;;;;;;;;;6151935;23;20454;-67
2023/10/26 03:22:11;;;;;;;4.38;4.07;;;;;;;;;;6152438;23;20244;-67
2023/10/26 03:24:37;;;;;;;4.15;3.90;;;;;;;;;;6155283;23;20013;-66
2023/10/26 03:27:03;;;;;;;3.45;3.25;;;;;;;;;;6153098;23;20020;-67
2023/10/26 03:29:29;;;;;;;3.22;3.00;;;;;;;;;;6155145;23;20090;-66
2023/10/26 03:31:56;;;;;;;4.18;3.88;;;;;;;;;;6153215;23;20013;-68
2023/10/26 03:34:22;;;;;;;2.63;2.53;;;;;;;;;;6155172;23;20390;-67
2023/10/26 03:36:48;;;;;;;3.47;3.28;;;;;;;;;;6154641;23;20025;-67
2023/10/26 03:39:14;;;;;;;3.33;3.08;;;;;;;;;;6154976;23;20035;-67
2023/10/26 03:41:42;;;;;;;3.97;3.67;;;;;;;;;;6153215;23;20032;-67
2023/10/26 03:44:08;;;;;;;3.83;3.53;;;;;;;;;;6153880;23;20018;-68
2023/10/26 03:46:34;;;;;;;3.08;2.88;;;;;;;;;;6155314;23;20361;-68
2023/10/26 03:49:01;;;;;;;4.65;4.18;;;;;;;;;;6154908;23;20035;-69
2023/10/26 03:51:27;;;;;;;3.25;3.05;;;;;;;;;;6154450;23;20466;-68
2023/10/26 03:53:53;;;;;;;6.10;3.40;;;;;;;;;;6154394;23;20018;-67
2023/10/26 03:56:19;;;;;;;4.20;3.90;;;;;;;;;;6153790;23;20013;-68
2023/10/26 03:58:45;;;;;;;3.92;3.63;;;;;;;;;;6153383;23;20057;-68
2023/10/26 04:01:11;;;;;;;2.88;2.78;;;;;;;;;;6154857;23;20032;-68
2023/10/26 04:03:38;;;;;;;3.67;3.47;;;;;;;;;;6154980;23;20013;-67
2023/10/26 04:06:04;;;;;;;5.70;3.65;;;;;;;;;;6154202;23;20010;-68
2023/10/26 04:08:30;;;;;;;3.63;3.40;;;;;;;;;;6154727;23;20017;-67
2023/10/26 04:10:56;;;;;;;3.60;3.35;;;;;;;;;;6154349;23;20018;-67
2023/10/26 04:13:22;;;;;;;4.15;2.97;;;;;;;;;;6154348;23;20017;-66
2023/10/26 04:15:50;;;;;;;4.35;3.95;;;;;;;;;;6154678;23;20362;-67
2023/10/26 04:18:16;;;;;;;3.22;3.03;;;;;;;;;;6154717;23;20093;-66
2023/10/26 04:20:41;;;;;;;3.67;3.38;;;;;;;;;;6154568;23;20053;-67
2023/10/26 04:23:08;;;;;;;3.92;3.63;;;;;;;;;;6153055;23;20010;-67
2023/10/26 04:25:34;;;;;;;16.80;4.05;;;;;;;;;;6153253;23;20229;-68
2023/10/26 04:28:00;;;;;;;3.90;3.70;;;;;;;;;;6154362;23;20311;-67
2023/10/26 04:30:26;;;;;;;7.53;4.57;;;;;;;;;;6153039;23;20106;-67
2023/10/26 04:32:52;;;;;;;4.40;4.18;;;;;;;;;;6152210;23;20307;-67
2023/10/26 04:35:19;;;;;;;4.53;4.22;;;;;;;;;;6149179;23;20010;-67
2023/10/26 04:37:45;;;;;;;5.07;4.78;;;;;;;;;;6150889;23;20021;-67
2023/10/26 04:40:11;;;;;;;4.53;4.22;;;;;;;;;;6149162;23;20124;-67
2023/10/26 04:42:37;;;;;;;3.30;2.97;;;;;;;;;;6149030;23;20465;-67
2023/10/26 04:45:03;;;;;;;4.03;3.72;;;;;;;;;;6151557;23;20029;-67
2023/10/26 04:47:31;;;;;;;3.17;3.03;;;;;;;;;;6153225;23;20085;-67
2023/10/26 04:49:57;;;;;;;4.22;3.92;;;;;;;;;;6152881;23;20083;-68
2023/10/26 04:52:23;;;;;;;3.20;3.00;;;;;;;;;;6151469;23;20013;-67
2023/10/26 04:54:49;;;;;;;4.65;4.28;;;;;;;;;;6152748;23;20009;-67
2023/10/26 04:57:15;;;;;;;3.88;3.58;;;;;;;;;;6153290;23;20072;-68
2023/10/26 04:59:41;;;;;;;4.07;3.28;;;;;;;;;;6152896;23;20024;-67
2023/10/26 05:02:07;;;;;;;5.60;5.20;;;;;;;;;;6152442;23;20040;-68
2023/10/26 05:04:33;;;;;;;5.10;4.60;;;;;;;;;;6153081;23;20021;-68
2023/10/26 05:06:59;;;;;;;3.47;3.28;;;;;;;;;;6152659;23;20014;-68
2023/10/26 05:09:25;;;;;;;4.03;3.75;;;;;;;;;;6152916;23;20092;-68
2023/10/26 05:11:51;;;;;;;3.70;3.40;;;;;;;;;;6151204;23;20091;-67
2023/10/26 05:14:17;;;;;;;9.55;4.85;;;;;;;;;;6151249;23;20016;-67
2023/10/26 05:16:43;;;;;;;2.75;2.55;;;;;;;;;;6152785;23;20450;-66
2023/10/26 05:19:09;;;;;;;3.80;3.50;;;;;;;;;;6152497;23;20367;-68
2023/10/26 05:21:35;;;;;;;3.00;2.80;;;;;;;;;;6152777;23;20048;-68
2023/10/26 05:24:02;;;;;;;4.60;3.75;;;;;;;;;;6150715;23;20013;-67
2023/10/26 05:26:29;;;;;;;4.60;2.88;;;;;;;;;;6151685;23;20056;-68
2023/10/26 05:28:55;;;;;;;9.40;2.58;;;;;;;;;;6152293;23;20020;-67
2023/10/26 05:31:21;;;;;;;3.83;3.58;;;;;;;;;;6152668;23;20014;-68
2023/10/26 05:33:47;;;;;;;3.60;3.40;;;;;;;;;;6152577;23;20520;-67
2023/10/26 05:36:13;;;;;;;2.80;2.63;;;;;;;;;;6152171;23;20015;-67
2023/10/26 05:38:39;;;;;;;2.75;2.65;;;;;;;;;;6152349;23;20023;-68
2023/10/26 05:41:05;;;;;;;2.33;2.22;;;;;;;;;;6152036;23;20048;-68
2023/10/26 05:43:31;;;;;;;4.63;2.55;;;;;;;;;;6152346;23;20096;-68
2023/10/26 05:46:01;;;;;;;2.65;2.55;;;;;;;;;;6151547;23;20048;-67
2023/10/26 05:48:27;;;;;;;3.30;3.00;;;;;;;;;;6152339;23;20485;-67
2023/10/26 05:50:53;;;;;;;2.42;2.33;;;;;;;;;;6152072;23;20014;-68
2023/10/26 05:53:19;;;;;;;3.22;3.03;;;;;;;;;;6152336;23;20065;-66
2023/10/26 05:55:54;;;;;;;3.67;3.30;;;;;;;;;;6151763;23;20013;-68
2023/10/26 05:58:20;;;;;;;3.33;3.08;;;;;;;;;;6126040;23;20011;-71
2023/10/26 06:00:46;;;;;;;3.47;3.28;;;;;;;;;;6152231;23;20275;-69
2023/10/26 06:03:12;;;;;;;2.92;2.72;;;;;;;;;;6150186;23;20013;-69
2023/10/26 06:05:38;;;;;;;2.90;2.70;;;;;;;;;;6152341;23;20594;-70
2023/10/26 06:08:04;;;;;;;2.50;2.30;;;;;;;;;;6151244;23;20434;-70
2023/10/26 06:10:30;;;;;;;5.25;2.60;;;;;;;;;;6152499;23;20020;-70
2023/10/26 06:12:56;;;;;;;2.13;2.03;;;;;;;;;;6125822;23;20013;-70
2023/10/26 06:15:22;;;;;;;3.15;2.95;;;;;;;;;;6152419;23;20481;-69
2023/10/26 06:17:49;;;;;;;3.15;2.95;;;;;;;;;;6148061;23;20017;-70
2023/10/26 06:20:16;;;;;;;2.33;2.22;;;;;;;;;;6151172;23;20405;-69
2023/10/26 06:22:42;;;;;;;3.45;2.78;;;;;;;;;;6151511;23;20018;-71
2023/10/26 06:25:10;;;;;;;3.85;2.42;;;;;;;;;;6151083;23;20025;-71
2023/10/26 06:27:36;;;;;;;3.28;3.08;;;;;;;;;;6149912;23;20009;-70
2023/10/26 06:30:03;;;;;;;3.35;2.72;;;;;;;;;;6149275;23;20009;-70
2023/10/26 06:32:29;;;;;;;2.72;2.60;;;;;;;;;;6151215;23;20024;-70
2023/10/26 06:34:56;;;;;;;4.30;3.47;;;;;;;;;;6150906;23;20346;-70
2023/10/26 06:37:23;;;;;;;3.88;3.53;;;;;;;;;;6150731;23;20109;-70
2023/10/26 06:39:49;;;;;;;4.43;2.95;;;;;;;;;;6149271;23;20336;-71
2023/10/26 06:42:15;;;;;;;3.10;2.80;;;;;;;;;;6149198;23;20014;-71
2023/10/26 06:44:41;;;;;;;5.30;2.88;;;;;;;;;;6150892;23;20040;-72
2023/10/26 06:47:07;;;;;;;2.92;2.72;;;;;;;;;;6150617;23;20009;-72
2023/10/26 06:49:33;;;;;;;2.53;2.42;;;;;;;;;;6151035;23;20020;-71
2023/10/26 06:51:59;;;;;;;3.13;2.92;;;;;;;;;;6150827;23;20020;-69
2023/10/26 06:54:25;;;;;;;3.78;2.55;;;;;;;;;;6151103;23;20013;-70
2023/10/26 06:56:51;;;;;;;4.38;3.15;;;;;;;;;;6151007;23;20013;-70
2023/10/26 06:59:17;;;;;;;3.20;2.90;;;;;;;;;;6149143;23;20009;-69
2023/10/26 07:01:44;;;;;;;3.13;2.92;;;;;;;;;;6151645;23;20071;-71
2023/10/26 07:04:10;;;;;;;3.33;3.03;;;;;;;;;;6150544;23;20009;-70
2023/10/26 07:06:36;;;;;;;5.03;3.00;;;;;;;;;;6151179;23;20013;-69
2023/10/26 07:09:03;;;;;;;3.92;3.63;;;;;;;;;;6149489;23;20103;-69
2023/10/26 07:11:29;;;;;;;3.65;3.35;;;;;;;;;;6151271;23;20112;-71
2023/10/26 07:13:55;;;;;;;5.65;3.67;;;;;;;;;;6148924;23;20009;-70
2023/10/26 07:16:21;;;;;;;2.60;2.50;;;;;;;;;;6150921;23;20088;-70
2023/10/26 07:18:47;;;;;;;7.55;2.60;;;;;;;;;;6149979;23;20469;-71
2023/10/26 07:21:13;;;;;;;3.10;2.78;;;;;;;;;;6150633;23;20466;-71
2023/10/26 07:23:39;;;;;;;6.82;3.70;;;;;;;;;;6149617;23;20037;-70
2023/10/26 07:26:05;;;;;;;3.30;3.03;;;;;;;;;;6148384;23;20104;-70
2023/10/26 07:28:30;;;;;;;5.05;2.92;;;;;;;;;;6146103;23;20541;-69
2023/10/26 07:30:57;;;;;;;4.22;3.38;;;;;;;;;;6149703;23;20100;-70
2023/10/26 07:33:23;;;;;;;3.22;3.03;;;;;;;;;;6149926;23;20088;-70
2023/10/26 07:35:51;;;;;;;5.70;3.42;;;;;;;;;;6149262;23;20469;-71
2023/10/26 07:38:19;;;;;;;2.97;2.60;;;;;;;;;;6150669;23;20064;-70
2023/10/26 07:40:48;;;;;;;4.47;4.07;;;;;;;;;;6151166;23;20021;-70
2023/10/26 07:43:14;;;;;;;2.90;2.70;;;;;;;;;;6150350;23;20009;-71
2023/10/26 07:45:40;;;;;;;4.93;3.33;;;;;;;;;;6150250;23;20041;-70
2023/10/26 07:48:06;;;;;;;3.65;3.33;;;;;;;;;;6150328;23;20014;-71
2023/10/26 07:50:32;;;;;;;2.90;2.80;;;;;;;;;;6150873;23;20022;-70
2023/10/26 07:52:58;;;;;;;7.28;4.20;;;;;;;;;;6150554;23;20077;-70
2023/10/26 07:55:24;;;;;;;3.97;3.67;;;;;;;;;;6149773;23;20013;-71
2023/10/26 07:57:50;;;;;;;3.40;3.17;;;;;;;;;;6150856;23;20454;-72
2023/10/26 08:00:16;;;;;;;3.53;3.22;;;;;;;;;;6149931;23;20017;-70
2023/10/26 08:02:42;;;;;;;3.80;3.60;;;;;;;;;;6173868;23;20025;-69
2023/10/26 08:05:08;;;;;;;4.03;3.72;;;;;;;;;;6151122;23;20009;-69
2023/10/26 08:07:35;;;;;;;5.05;3.92;;;;;;;;;;6150675;23;20009;-68
2023/10/26 08:10:01;;;;;;;3.70;3.40;;;;;;;;;;6152129;23;20010;-69
2023/10/26 08:12:29;;;;;;;4.20;3.28;;;;;;;;;;6153754;23;20017;-72
2023/10/26 08:14:57;;;;;;;3.45;3.25;;;;;;;;;;6154676;23;20010;-69
2023/10/26 08:17:25;;;;;;;3.53;3.22;;;;;;;;;;6153964;23;20013;-70
2023/10/26 08:19:54;;;;;;;4.32;4.03;;;;;;;;;;6152646;23;20013;-68
2023/10/26 08:22:23;;;;;;;4.72;4.03;;;;;;;;;;6154531;23;20553;-70
2023/10/26 08:24:49;;;;;;;10.63;3.75;;;;;;;;;;6155021;23;20009;-69
2023/10/26 08:27:15;;;;;;;4.85;3.92;;;;;;;;;;6154683;23;20084;-69
2023/10/26 08:29:41;;;;;;;4.40;3.22;;;;;;;;;;6154854;23;20068;-69
2023/10/26 08:32:07;;;;;;;8.98;3.10;;;;;;;;;;6154288;23;20072;-68
2023/10/26 08:34:33;;;;;;;2.72;2.63;;;;;;;;;;6154318;23;20099;-69
2023/10/26 08:37:00;;;;;;;5.68;2.95;;;;;;;;;;6152251;23;20035;-68
2023/10/26 08:39:26;;;;;;;4.72;4.13;;;;;;;;;;6153403;23;20370;-70
2023/10/26 08:41:57;;;;;;;4.30;3.85;;;;;;;;;;6152610;23;20029;-69
2023/10/26 08:44:23;;;;;;;;;;;;;;;;;;6155372;23;20380;-70
2023/10/26 08:46:49;;;;;;;3.20;2.92;;;;;;;;;;6153885;23;19908;-69
2023/10/26 08:49:15;;;;;;;3.45;3.15;;;;;;;;;;6151550;23;20013;-69
2023/10/26 08:51:41;;;;;;;4.57;4.00;;;;;;;;;;6151884;23;20020;-70
2023/10/26 08:54:07;;;;;;;3.20;3.00;;;;;;;;;;6152406;23;20052;-70
2023/10/26 08:56:33;;;;;;;3.55;3.25;;;;;;;;;;6153684;23;20017;-68
2023/10/26 08:58:59;;;;;;;3.53;2.75;;;;;;;;;;6151234;23;20021;-70
2023/10/26 09:01:25;;;;;;;3.88;3.20;;;;;;;;;;6152170;23;20021;-69
2023/10/26 09:03:51;;;;;;;2.83;2.63;;;;;;;;;;6151406;23;20021;-70
2023/10/26 09:06:17;;;;;;;4.60;4.22;;;;;;;;;;6151728;23;20462;-70
2023/10/26 09:08:43;;;;;;;2.47;2.38;;;;;;;;;;6152149;23;20068;-69
2023/10/26 09:11:11;;;;;;;8.77;3.58;;;;;;;;;;6151818;23;20100;-70
2023/10/26 09:13:37;;;;;;;5.70;3.13;;;;;;;;;;6150325;23;20457;-69
2023/10/26 09:16:04;;;;;;;4.93;2.45;;;;;;;;;;6151200;23;20045;-71
2023/10/26 09:18:31;;;;;;;4.47;2.83;;;;;;;;;;6151398;23;20120;-71
2023/10/26 09:21:02;;;;;;;3.38;2.58;;;;;;;;;;6151467;23;20075;-69
2023/10/26 09:23:28;;;;;;;;;;;;;;;;;;6152651;23;20020;-71
2023/10/26 09:26:04;;;;;;;3.20;2.90;;;;;;;;;;6151777;23;19995;-69
2023/10/26 09:28:48;;;;;;;4.80;3.00;;;;;;;;;;6151870;23;20017;-68
2023/10/26 09:31:15;;;;;;;4.03;2.40;;;;;;;;;;6150876;23;20358;-68
2023/10/26 09:33:40;;;;;;;4.97;2.78;;;;;;;;;;6152037;23;20013;-69
2023/10/26 09:36:12;;;;;;;2.42;2.33;;;;;;;;;;6150266;23;20354;-69
2023/10/26 09:38:39;;;;;;;2.55;2.30;;;;;;;;;;6151659;23;20418;-69
2023/10/26 09:41:05;;;;;;;3.33;3.03;;;;;;;;;;6151407;23;20152;-72
2023/10/26 09:43:31;;;;;;;2.20;2.10;;;;;;;;;;6151883;23;20446;-72
2023/10/26 09:45:57;;;;;;;3.00;2.80;;;;;;;;;;6151671;23;20086;-72
2023/10/26 09:48:23;;;;;;;2.88;2.67;;;;;;;;;;6151895;23;20068;-72
2023/10/26 09:50:49;;;;;;;5.63;2.60;;;;;;;;;;6152048;23;20466;-71
2023/10/26 09:53:16;;;;;;;3.10;2.88;;;;;;;;;;6151582;23;20014;-71
2023/10/26 09:55:43;;;;;;;4.22;3.40;;;;;;;;;;6151729;23;20024;-71
2023/10/26 09:58:09;;;;;;;2.63;2.42;;;;;;;;;;6149969;23;20047;-72
2023/10/26 10:00:35;;;;;;;1.95;1.85;;;;;;;;;;6151724;23;20021;-73
2023/10/26 10:03:12;;;;;;;3.03;2.45;;;;;;;;;;6151769;23;20465;-70
2023/10/26 10:05:38;;;;;;;2.22;2.10;;;;;;;;;;6151555;23;20517;-71
2023/10/26 10:08:04;;;;;;;2.65;2.45;;;;;;;;;;6151015;23;20068;-71
2023/10/26 10:10:30;;;;;;;2.97;2.70;;;;;;;;;;6151666;23;20119;-71
2023/10/26 10:12:56;;;;;;;2.60;2.45;;;;;;;;;;6151190;23;20477;-72
2023/10/26 10:15:35;;;;;;;4.00;2.25;;;;;;;;;;6152032;23;20024;-71
2023/10/26 10:18:02;;;;;;;2.90;2.60;;;;;;;;;;6151173;23;20438;-72
2023/10/26 10:20:29;;;;;;;2.85;2.65;;;;;;;;;;6153440;23;20028;-70
2023/10/26 10:22:58;;;;;;;4.18;3.10;;;;;;;;;;6177141;23;20089;-71
2023/10/26 10:25:43;;;;;;;2.63;2.53;;;;;;;;;;6153108;23;20461;-71
2023/10/26 10:28:10;;;;;;;3.47;2.63;;;;;;;;;;6151284;23;20014;-70
2023/10/26 10:30:47;;;;;;;4.10;3.05;;;;;;;;;;6151553;23;20037;-69
2023/10/26 10:33:14;;;;;;;2.45;2.08;;;;;;;;;;6149222;23;20020;-68
2023/10/26 10:35:43;;;;;;;5.03;2.30;;;;;;;;;;6150049;23;20020;-70
2023/10/26 10:38:16;;;;;;;3.22;2.65;;;;;;;;;;6150843;23;20331;-70
2023/10/26 10:40:53;;;;;;;4.45;3.42;;;;;;;;;;6150734;23;20040;-70
2023/10/26 10:43:30;;;;;;;3.45;2.75;;;;;;;;;;6150134;23;20014;-70
2023/10/26 10:45:56;;;;;;;3.28;2.80;;;;;;;;;;6151024;23;20377;-69
2023/10/26 10:48:22;;;;;;;2.65;2.45;;;;;;;;;;6151245;23;20085;-71
2023/10/26 10:50:50;;;;;;;3.53;2.67;;;;;;;;;;6147193;23;20013;-71
2023/10/26 10:53:16;;;;;;;5.38;3.00;;;;;;;;;;6149910;23;20065;-69
2023/10/26 10:55:43;;;;;;;5.88;3.00;;;;;;;;;;6150506;23;20084;-70
2023/10/26 10:58:09;;;;;;;4.85;2.58;;;;;;;;;;6149986;23;20017;-70
2023/10/26 11:00:41;;;;;;;7.40;3.00;;;;;;;;;;6150720;23;20089;-72
2023/10/26 11:03:07;;;;;;;2.22;2.05;;;;;;;;;;6150401;23;20020;-69
2023/10/26 11:05:34;;;;;;;2.67;2.35;;;;;;;;;;6150270;23;20010;-69
2023/10/26 11:08:00;;;;;;;2.00;1.90;;;;;;;;;;6149495;23;20461;-69
2023/10/26 11:10:26;;;;;;;2.58;2.38;;;;;;;;;;6150429;23;20013;-69
2023/10/26 11:12:52;;;;;;;2.17;1.98;;;;;;;;;;6150710;23;20833;-70
2023/10/26 11:15:19;;;;;;;2.60;2.40;;;;;;;;;;6148671;23;20059;-70
2023/10/26 11:17:45;;;;;;;2.78;2.58;;;;;;;;;;6150069;23;20063;-70
2023/10/26 11:20:29;;;;;;;3.40;2.40;;;;;;;;;;6149341;23;20117;-70
2023/10/26 11:22:56;;;;;;;3.15;2.63;;;;;;;;;;6149929;23;20084;-70
2023/10/26 11:25:25;;;;;;;4.30;2.55;;;;;;;;;;6149821;23;20018;-72
2023/10/26 11:27:51;;;;;;;4.43;2.38;;;;;;;;;;6150386;23;20084;-70
2023/10/26 11:30:17;;;;;;;2.38;2.22;;;;;;;;;;6149467;23;20395;-70
2023/10/26 11:32:43;;;;;;;3.03;2.38;;;;;;;;;;6150871;23;20020;-70
2023/10/26 11:35:10;;;;;;;2.30;2.20;;;;;;;;;;6149886;23;20476;-72
2023/10/26 11:37:37;;;;;;;3.08;2.88;;;;;;;;;;6151822;23;20044;-70
2023/10/26 11:40:04;;;;;;;5.20;2.50;;;;;;;;;;6147818;23;20041;-70
2023/10/26 11:42:44;;;;;;;4.35;2.95;;;;;;;;;;6150275;23;20402;-72
2023/10/26 11:45:11;;;;;;;4.07;2.40;;;;;;;;;;6152228;23;20056;-72
2023/10/26 11:47:51;;;;;;;2.83;2.05;;;;;;;;;;6152925;23;20014;-72
2023/10/26 11:50:18;;;;;;;2.33;2.22;;;;;;;;;;6150383;23;20014;-71
2023/10/26 11:52:43;;;;;;;3.13;2.83;;;;;;;;;;6152201;23;20017;-70
2023/10/26 11:55:10;;;;;;;2.90;2.50;;;;;;;;;;6151572;23;20088;-71
2023/10/26 11:57:36;;;;;;;2.50;2.40;;;;;;;;;;6152319;23;20013;-71
2023/10/26 12:00:05;;;;;;;3.03;2.80;;;;;;;;;;6152143;23;20366;-71
2023/10/26 12:02:39;;;;;;;4.38;2.78;;;;;;;;;;6152415;23;20709;-71
2023/10/26 12:05:06;;;;;;;3.00;2.55;;;;;;;;;;6150945;23;20009;-71
2023/10/26 12:07:33;;;;;;;2.78;2.58;;;;;;;;;;6150693;23;20366;-70
2023/10/26 12:10:00;;;;;;;2.13;2.03;;;;;;;;;;6151497;23;20013;-69
2023/10/26 12:12:26;;;;;;;2.80;2.60;;;;;;;;;;6151808;23;20040;-70
2023/10/26 12:14:52;;;;;;;1.75;1.65;;;;;;;;;;6152321;23;20021;-70
2023/10/26 12:17:19;;;;;;;3.50;3.03;;;;;;;;;;6150649;23;20052;-70
2023/10/26 12:19:44;;;;;;;2.50;2.30;;;;;;;;;;6152331;23;20053;-70
2023/10/26 12:22:11;;;;;;;1.88;1.80;;;;;;;;;;6150478;23;20017;-70
2023/10/26 12:24:37;;;;;;;2.13;2.03;;;;;;;;;;6151032;23;20119;-70
2023/10/26 12:27:03;;;;;;;2.22;1.90;;;;;;;;;;6151989;23;20369;-69
2023/10/26 12:29:29;;;;;;;3.22;2.92;;;;;;;;;;6152333;23;20013;-70
2023/10/26 12:31:55;;;;;;;3.45;2.45;;;;;;;;;;6151671;23;20040;-70
2023/10/26 12:34:21;;;;;;;2.72;2.55;;;;;;;;;;6167976;23;20040;-83
2023/10/26 12:36:47;;;;;;;2.78;2.58;;;;;;;;;;6175813;23;20005;-81
2023/10/26 12:39:13;;;;;;;4.15;2.72;;;;;;;;;;6174696;23;20025;-81
2023/10/26 12:41:39;;;;;;;3.67;2.50;;;;;;;;;;6146872;23;20021;-80
2023/10/26 12:44:05;;;;;;;3.28;2.80;;;;;;;;;;6161726;23;20037;-80
2023/10/26 12:46:31;;;;;;;7.90;2.42;;;;;;;;;;6161415;23;20436;-80
2023/10/26 12:48:57;;;;;;;4.07;2.95;;;;;;;;;;6158935;23;20088;-79
2023/10/26 12:51:23;;;;;;;2.53;2.33;;;;;;;;;;6157205;23;20016;-81
2023/10/26 12:53:49;;;;;;;4.18;3.30;;;;;;;;;;6158196;23;20037;-81
2023/10/26 12:56:16;;;;;;;4.43;3.08;;;;;;;;;;6157084;23;20056;-79
2023/10/26 12:58:42;;;;;;;3.42;2.70;;;;;;;;;;6158623;23;20016;-81
2023/10/26 13:01:08;;;;;;;2.78;2.60;;;;;;;;;;6106944;23;20022;-80
2023/10/26 13:03:34;;;;;;;2.88;2.67;;;;;;;;;;6157389;23;20021;-79
2023/10/26 13:06:00;;;;;;;2.13;1.98;;;;;;;;;;6156126;23;20421;-82
2023/10/26 13:08:27;;;;;;;4.07;2.85;;;;;;;;;;6133941;23;20041;-80
2023/10/26 13:10:53;;;;;;;6.22;3.10;;;;;;;;;;6160752;23;20025;-81
2023/10/26 13:13:19;;;;;;;3.33;2.83;;;;;;;;;;6130840;23;20037;-79
2023/10/26 13:15:46;;;;;;;2.35;2.15;;;;;;;;;;6156389;23;20017;-80
2023/10/26 13:18:12;;;;;;;2.47;2.33;;;;;;;;;;6129763;23;20089;-80
2023/10/26 13:20:37;;;;;;;2.75;2.63;;;;;;;;;;6131160;23;20060;-79
2023/10/26 13:23:04;;;;;;;5.43;2.83;;;;;;;;;;6130855;23;20013;-79
2023/10/26 13:25:30;;;;;;;3.08;2.88;;;;;;;;;;6155875;23;20013;-80
2023/10/26 13:27:59;;;;;;;4.45;2.65;;;;;;;;;;6130432;23;20013;-80
2023/10/26 13:30:25;;;;;;;4.72;2.72;;;;;;;;;;6155750;23;20521;-79
2023/10/26 13:32:52;;;;;;;4.22;3.40;;;;;;;;;;6157330;23;20009;-79
2023/10/26 13:35:18;;;;;;;2.38;2.20;;;;;;;;;;6154103;23;20083;-80
2023/10/26 13:37:44;;;;;;;4.32;3.88;;;;;;;;;;6168795;23;20001;-83
2023/10/26 13:40:10;;;;;;;3.25;2.88;;;;;;;;;;6174005;23;20044;-80
2023/10/26 13:42:36;;;;;;;2.28;2.10;;;;;;;;;;6160724;23;20018;-82
2023/10/26 13:45:02;;;;;;;4.18;2.35;;;;;;;;;;6168829;23;20020;-81
2023/10/26 13:47:29;;;;;;;3.00;2.80;;;;;;;;;;6162065;23;20016;-81
2023/10/26 13:49:55;;;;;;;2.03;1.83;;;;;;;;;;6160184;23;20009;-80
2023/10/26 13:52:21;;;;;;;3.75;2.45;;;;;;;;;;6169000;23;20009;-80
2023/10/26 13:54:47;;;;;;;2.92;2.65;;;;;;;;;;6172958;23;20041;-82
2023/10/26 13:57:14;;;;;;;3.38;2.78;;;;;;;;;;6174271;23;20056;-83
2023/10/26 13:59:41;;;;;;;2.47;2.38;;;;;;;;;;6177522;23;20442;-84
2023/10/26 14:02:07;;;;;;;2.63;2.42;;;;;;;;;;6180307;23;20009;-85
2023/10/26 14:04:33;;;;;;;1.90;1.80;;;;;;;;;;6180583;23;20014;-84
2023/10/26 14:06:59;;;;;;;2.90;2.67;;;;;;;;;;6173227;23;20013;-81
2023/10/26 14:09:27;;;;;;;2.92;2.72;;;;;;;;;;6201343;23;20009;-85
2023/10/26 17:16:04;;;;;;;2.55;2.38;;;;;;;;;;6056479;23;20041;-77
2023/10/26 17:18:31;;;;;;;2.90;2.70;;;;;;;;;;6133953;23;20006;-83
2023/10/26 17:20:57;;;;;;;2.95;2.72;;;;;;;;;;6121303;23;20026;-83
2023/10/26 17:23:23;;;;;;;4.68;2.78;;;;;;;;;;6103259;23;20003;-82
2023/10/26 17:28:39;;;;;;;3.22;2.40;;;;;;;;;;6153744;23;20006;-82
2023/10/26 17:31:05;;;;;;;3.65;2.50;;;;;;;;;;6121579;23;20028;-84
2023/10/26 17:33:31;;;;;;;2.25;2.05;;;;;;;;;;6115959;23;20012;-85
2023/10/26 17:35:57;;;;;;;2.92;2.17;;;;;;;;;;6100264;23;20355;-83
2023/10/26 17:38:24;;;;;;;2.38;2.28;;;;;;;;;;6164833;23;20096;-77
2023/10/26 17:40:53;;;;;;;1.90;1.80;;;;;;;;;;6120151;23;20025;-78
2023/10/26 17:43:44;;;;;;;5.75;3.60;;;;;;;;;;6108456;23;20060;31
2023/10/26 17:54:38;;;;;;;2.15;1.90;;;;;;;;;;6116558;23;20023;-83
2023/10/26 17:57:04;;;;;;;2.65;2.45;;;;;;;;;;6146959;23;20041;-80